Nearby METAR Reports

 

K8A0 - Albertville Muni, AL
Distance from station: SW 1mi, 2km
Updated: Thu, 18-Aug-2022 5:15pm CDT
Mostly cloudy
Mostly cloudy
 Wind from ENE
Wind: ENE 3 mph , 6 km/h
Temperature: 84°F , 29°C
Heat Index: 85°F , 29°C
Dew Point: 63°F , 17°C
Humidity: 48%
Barometer: 29.94 inHg , 1013.9 hPa
Clouds: Mostly cloudy
Visibility: 10 miles , 16 km
Cloud details: Mostly cloudy 5000 ft
2022/08/18 22:15 K8A0 182215Z AUTO 06003KT 10SM BKN050 29/17 A2994 RMK AO2
KGAD - Gadsden Muni, AL
Distance from station: SSE 21mi, 35km
Updated: Thu, 18-Aug-2022 4:56pm CDT
Few Clouds
Few Clouds
 Wind from ESE
Wind: ESE 5 mph , 7 km/h
Temperature: 84°F , 29°C
Heat Index: 87°F , 31°C
Dew Point: 68°F , 20°C
Humidity: 58%
Barometer: 29.93 inHg , 1013.5 hPa
Clouds: Few Clouds
Visibility: 10 miles , 16 km
Cloud details: Few Clouds 10000 ft
2022/08/18 21:56 KGAD 182156Z AUTO 11004KT 10SM FEW100 29/20 A2993 RMK AO2 SLP132 T02890200 $
 
K4A6 - Scottsboro, AL
Distance from station: NNE 33mi, 53km
Updated: Thu, 18-Aug-2022 5:35pm CDT
Clear
Clear
 Wind from calm
Wind: Calm
Temperature: 86°F , 30°C
Heat Index: 88°F , 31°C
Dew Point: 66°F , 19°C
Humidity: 52%
Barometer: 29.92 inHg , 1013.2 hPa
Clouds: Clear
Visibility: 10 miles , 16 km
2022/08/18 22:35 K4A6 182235Z AUTO 00000KT 10SM CLR 30/19 A2992 RMK AO2
K4A9 - Ft Payne, AL
Distance from station: ENE 33mi, 54km
Updated: Thu, 18-Aug-2022 5:35pm CDT
Mostly cloudy
Mostly cloudy
 Wind from calm
Wind: Calm
Temperature: 82°F , 28°C
Heat Index: 84°F , 29°C
Dew Point: 66°F , 19°C
Humidity: 58%
Barometer: 29.93 inHg , 1013.5 hPa
Clouds: Mostly cloudy
Visibility: 10 miles , 16 km
Cloud details: Mostly cloudy 10000 ft
2022/08/18 22:35 K4A9 182235Z AUTO 00000KT 10SM BKN100 28/19 A2993 RMK AO2 T02770194
 
KMDQ - Huntsville, AL
Distance from station: NNW 47mi, 75km
Updated: Thu, 18-Aug-2022 5:35pm CDT
Clear
Clear
 Wind from NNE
Wind: NNE 5 mph , 7 km/h
Temperature: 86°F , 30°C
Heat Index: 86°F , 30°C
Dew Point: 61°F , 16°C
Humidity: 43%
Barometer: 29.94 inHg , 1013.9 hPa
Clouds: Clear
Visibility: 10 miles , 16 km
2022/08/18 22:35 KMDQ 182235Z AUTO 03004KT 10SM CLR 30/16 A2994 RMK A02 T02960157
KDCU - Decatur, AL
Distance from station: NW 49mi, 80km
Updated: Thu, 18-Aug-2022 4:53pm CDT
Clear
Clear
 
Temperature: 88°F , 31°C
Heat Index: 88°F , 31°C
Dew Point: 61°F , 16°C
Humidity: 40%
Barometer: 29.93 inHg , 1013.5 hPa
Clouds: Clear
Visibility: 10 miles , 16 km
2022/08/18 21:53 KDCU 182153Z AUTO 10SM CLR 31/16 A2993 RMK AO2 SLP128 T03110156 TSNO
 
KGKT - Sevierville, TN
Distance from station: NE 235mi, 378km
Updated: Thu, 18-Aug-2022 5:35pm CDT
Partly cloudy
Partly cloudy
 Wind from calm
Wind: Calm
Temperature: 84°F , 29°C
Heat Index: 85°F , 29°C
Dew Point: 63°F , 17°C
Humidity: 48%
Barometer: 29.96 inHg , 1014.6 hPa
Clouds: Partly cloudy
Visibility: 10 miles , 16 km
Cloud details: Partly cloudy 7500 ft
2022/08/18 22:35 KGKT 182235Z AUTO 00000KT 10SM SCT075 29/17 A2996 RMK A01
KSSI - Jeckyll Island, GA
Distance from station: SE 467mi, 752km
Updated: Thu, 18-Aug-2022 5:40pm CDT
Nearby thunderstorm, Rain, Mist, Overcast
Nearby thunderstorm, Rain, Mist, Overcast
 Wind from SW
Wind: SW 9 mph , 15 km/h
Temperature: 75°F , 24°C
Dew Point: 72°F , 22°C
Humidity: 89%
Barometer: 29.95 inHg , 1014.2 hPa
Summary: Nearby thunderstorm, Rain, Mist
Clouds: Overcast
Visibility: 1 1/2 miles , 2.4 km
Cloud details: Mostly cloudy 3200 ft
Overcast 9000 ft
2022/08/18 22:40 KSSI 182240Z AUTO 22008KT 1 1/2SM VCTS RA BR BKN032 OVC090 24/22 A2995 RMK AO2 PK WND 21034/2215 LTG DSNT ALQDS TSE40 P0092 T02390217
 
KECP - Panama City, FL
Distance from station: S 330mi, 531km
Updated: Thu, 18-Aug-2022 4:53pm CDT
Few Clouds
Few Clouds
 Wind from SSE
Wind: SSE 5 mph , 7 km/h
Temperature: 82°F , 28°C
Heat Index: 89°F , 32°C
Dew Point: 75°F , 24°C
Humidity: 79%
Barometer: 29.91 inHg , 1012.9 hPa
Clouds: Few Clouds
Visibility: 10 miles , 16 km
Cloud details: Few Clouds 1700 ft
2022/08/18 21:53 KECP 182153Z 15004KT 10SM FEW017 28/24 A2991 RMK AO1 SLP140 T02780239
KTPA - Tampa, FL,
Distance from station: S 600mi, 965km
Updated: Thu, 18-Aug-2022 5:24pm CDT
Mostly cloudy
Mostly cloudy
 Wind from NNE
Wind: NNE 8 mph , 13 km/h
Temperature: 84°F , 29°C
Heat Index: 89°F , 32°C
Dew Point: 72°F , 22°C
Humidity: 66%
Barometer: 29.97 inHg , 1014.9 hPa
Clouds: Mostly cloudy
Visibility: 10 miles , 16 km
Cloud details: Few Clouds 3500 ft
Partly cloudy 5000 ft
Mostly cloudy 25000 ft
2022/08/18 22:24 KTPA 182224Z 02007KT 10SM FEW035 SCT050 BKN250 29/22 A2997 RMK AO2 LTG DSNT SW AND W TSE23 CB DSNT E-SE AND SW-W T02890222 $
 
KMTH - Marathon, FL,
Distance from station: S 915mi, 1473km
Updated: Thu, 18-Aug-2022 4:53pm CDT
Clear
Clear
 Wind from W
Wind: W 7 mph , 11 km/h
Temperature: 90°F , 32°C
Heat Index: 101°F , 38°C
Dew Point: 75°F , 24°C
Humidity: 63%
Barometer: 29.96 inHg , 1014.6 hPa
Clouds: Clear
Visibility: 10 miles , 16 km
2022/08/18 21:53 KMTH 182153Z AUTO 28006KT 10SM CLR 32/24 A2996 RMK AO2 LTG DSNT W SLP144 T03220239
KNYL - Yuma, AZ
Distance from station: W 3147mi, 5065km
Updated: Thu, 18-Aug-2022 4:57pm CDT
Few Clouds
Few Clouds
 Wind from SSW
Wind: SSW 9 mph , 15 km/h, Gust: 17 mph , 28 km/h
Temperature: 102°F , 39°C
Dew Point: 72°F , 22°C
Humidity: 37%
Barometer: 29.72 inHg , 1006.4 hPa
Clouds: Few Clouds
Visibility: 7 miles , 11 km
Cloud details: Few Clouds 20000 ft
2022/08/18 21:57 KNYL 182157Z 20008G15KT 7SM FEW200 39/22 A2972 RMK AO2 SLP060 T03890217
 
PABI - Ft. Greely, AK
Distance from station: NW 4300mi, 7167km
Updated: Thu, 18-Aug-2022 4:53pm CDT
Mostly cloudy
Mostly cloudy
 Wind from S
Wind: S 24 mph , 39 km/h, Gust: 35 mph , 56 km/h
Temperature: 61°F , 16°C
Dew Point: 36°F , 2°C
Humidity: 39%
Barometer: 29.91 inHg , 1012.9 hPa
Clouds: Mostly cloudy
Visibility: 10 miles , 16 km
Cloud details: Few Clouds 6000 ft
Partly cloudy 7000 ft
Mostly cloudy 10000 ft
Mostly cloudy 15000 ft
2022/08/18 21:53 PABI 182153Z 18021G30KT 10SM FEW060 SCT070 BKN100 BKN150 16/02 A2991 RMK AO2 PK WND 19030/2151 SLP131 T01610017